x

Nantucket Sound (44020) Wave Buoy

3:50 - Mon 2nd May 2016 All times are EDT. -4 hours from GMT.

  • Sig Wave height 1.3ft
  • Swell Direction
  • Peak Period 4s
  • Average Period 4s
  • Wind
    11mph, 13mph gusts
  • Sea Temp 49°f
  • Ar Temp 48°f
  • Sea Pressure 1016.4mb
  • Nantucket Sound
  • Nantucket Sound

More Historic Weather Station data

Upgrade to MSW Pro to gain access to the past 30 days of data for over 8000 Wavebouys and Weather Stations around the globe.

Join Pro

Comparision Forecast

View Surf forecast
   
Seg 05/02 3:50 1.3ft 4s 4s 11 13 mph 1016.4mb 49f 48f
2:50 1.6ft 4s 4s 11 13 mph 1017mb 49f 48f
1:50 2ft 3s 3s 16 18 mph 1017.2mb 49f 48f
12:50 1.6ft 3s 3s 18 20 mph 1017.8mb 49f 48f
Dom 05/01 11:50 1.6ft 5s 3s 18 22 mph 1019.1mb 49f 47f
10:50 1.6ft 11s 4s 18 20 mph 1019.9mb 49f 47f
9:50 1.6ft 11s 4s 13 16 mph 1021.4mb 49f 47f
8:50 1.6ft 10s 4s 13 16 mph 1021.8mb 50f 47f
7:50 1.6ft 9s 4s 13 16 mph 1021.9mb 50f 47f
6:50 1.6ft 5s 4s 11 13 mph 1022.4mb 50f 47f
5:50 1.3ft 9s 4s 11 13 mph 1022.9mb 50f 47f
4:50 1.3ft 3s 4s 11 13 mph 1023mb 49f 47f
3:50 1.3ft 3s 3s 11 13 mph 1023.7mb 49f 47f
2:50 1.3ft 3s 4s 13 16 mph 1023.7mb 49f 47f
1:50 1ft 10s 4s 13 16 mph 1023.6mb 49f 47f
12:50 1.3ft 11s 4s 11 13 mph 1024.4mb 49f 47f
11:50 1.3ft 10s 4s 13 16 mph 1024.4mb 49f 47f
10:50 1.3ft 9s 5s 11 13 mph 1025.1mb 49f 47f
9:50 1.3ft 7s 5s 11 13 mph 1025.2mb 49f 47f
8:50 1.3ft 5s 4s 7 9 mph 1025.6mb 49f 47f
7:50 1.6ft 6s 4s 9
mph
1025.1mb 49f 47f
6:50 1.3ft 8s 5s 7
mph
1024.8mb 49f 47f
5:50 1ft 7s 5s 4
mph
1024.2mb 49f 47f
4:50 1ft 7s 5s 2 4 mph 1024mb 49f 47f
3:50 0.7ft  -  4s 2
mph
1024mb 49f 47f
2:50 0.7ft  -  4s  -  2 mph 1023.6mb 49f 47f
1:50 0.7ft  -  4s  -  mph 1024mb 49f 47f
12:50 1ft 7s 4s 4
mph
1024.9mb 48f 47f
Sáb 04/30 11:50 1ft 5s 5s 7
mph
1024.8mb 49f 47f
10:50 1ft 6s 4s 4
mph
1024.9mb 49f 46f
9:50 1.3ft 5s 4s 4 7 mph 1025.3mb 49f 46f
8:50 1.3ft 6s 4s 7
mph
1025.2mb 49f 46f
7:50 1.6ft 4s 4s 13 16 mph 1023.9mb 50f 46f
6:50 1.6ft 5s 4s 7 11 mph 1024.3mb 50f 47f
5:50 1.3ft 5s 4s 9
mph
1024.4mb 50f 47f
4:50 1.3ft 3s 4s 9 11 mph 1024.2mb 50f 46f
3:50 1.3ft 3s 3s 11 13 mph 1023.7mb 49f 46f
2:50 1.3ft 4s 4s 11 13 mph 1023.4mb 49f 46f
1:50 1.6ft 3s 4s 13 16 mph 1023mb 49f 46f
12:50 1.3ft 3s 3s 16 18 mph 1022.7mb 49f 46f
11:50 1.3ft 3s 3s 16 20 mph 1022.9mb 49f 46f
10:50 1ft 6s 4s 13 16 mph 1023.3mb 49f 46f
8:50 1ft 6s 4s 9
mph
1024mb 48f 46f
7:50 1.3ft 5s 4s 9 11 mph 1022.6mb 48f 46f
6:50 1.6ft 5s 4s 11 13 mph 1021.7mb 49f 46f
5:50 1.6ft 6s 4s 11 16 mph 1021mb 49f 45f
4:50 1.3ft 6s 4s 9 11 mph 1021.6mb 49f 45f
3:50 1ft 5s 4s 9 11 mph 1021.3mb 49f 45f
2:50 1ft 5s 4s 7
mph
1021.8mb 49f 46f
1:50 1.3ft 4s 4s 7 9 mph 1021.7mb 49f 46f
12:50 1.6ft 4s 4s 11 13 mph 1021.2mb 48f 46f
Sex 04/29 11:50 1.6ft 4s 3s 16 18 mph 1020.5mb 48f 45f
10:50 2ft 3s 3s 16 18 mph 1020.4mb 48f 45f
9:50 2ft 3s 3s 16 20 mph 1020.7mb 48f 45f
8:50 1.6ft 3s 3s 18 22 mph 1020.5mb 48f 45f
7:50 2ft 5s 4s 18 20 mph 1020.8mb 49f 45f
6:50 2ft 5s 4s 16 20 mph 1020.4mb 49f 45f
5:50 2ft 4s 4s 13 16 mph 1021mb 49f 45f
4:50 2ft 5s 4s 13 16 mph 1020.3mb 49f 45f
3:50 1.6ft 4s 4s 16 18 mph 1020.2mb 49f 45f
2:50 1.6ft 4s 4s 16 18 mph 1020.4mb 49f 45f
1:50 1.6ft 3s 4s 16 18 mph 1021.3mb 48f 45f
12:50 1.6ft 4s 4s 16 18 mph 1021.9mb 48f 45f
11:50 1.6ft 4s 4s 16 18 mph 1022.4mb 48f 45f
10:50 1.6ft 3s 3s 13 18 mph 1022.3mb 48f 45f
9:50 1.6ft 3s 3s 16 20 mph 1021.5mb 48f 44f
8:50 1.3ft 3s 3s 18 20 mph 1021.4mb 48f 44f
7:50 1.6ft 2s 3s 18 20 mph 1021.5mb 48f 44f
6:50 1.3ft 4s 3s 16 18 mph 1021.2mb 48f 45f
5:50 1.3ft 3s 3s 13 18 mph 1020.3mb 49f 45f
4:50 1.3ft 4s 3s 13 16 mph 1019.8mb 49f 45f
3:50 1.3ft 3s 3s 11 13 mph 1019.7mb 49f 45f
2:50 1ft 3s 3s 11 16 mph 1019mb 49f 45f
1:50 1ft 3s 3s 13 16 mph 1019mb 49f 45f
12:50 0.7ft  -  4s 9 11 mph 1019.6mb 49f 45f
Qui 04/28 11:50 1ft 5s 3s 9 11 mph 1019.6mb 48f 46f
10:50 1ft 3s 3s 9 11 mph 1019.6mb 48f 46f
9:50 1ft 3s 3s 11 13 mph 1019.3mb 48f 46f
8:50 1ft 2s 3s 11 13 mph 1019.1mb 48f 46f
7:50 1ft 3s 3s 11 13 mph 1018.6mb 48f 46f
6:50 1ft 5s 3s 13 16 mph 1018.3mb 49f 46f
5:50 1.3ft 5s 3s 11 13 mph 1018.4mb 49f 47f
4:50 1.3ft 5s 3s 13 16 mph 1017.6mb 50f 46f
3:50 1ft 5s 3s 13
mph
1017.2mb 50f 46f
2:50 0.7ft  -  4s 13 16 mph 1017.6mb 49f 46f
1:50 0.7ft  -  3s 7 9 mph 1018.3mb 49f 46f
12:50 1ft 4s 3s 7 9 mph 1018.3mb 49f 46f
11:50 1ft 6s 3s 7 9 mph 1018.5mb 49f 46f
10:50 1ft 5s 4s 4 7 mph 1018.3mb 48f 46f
9:50 1ft 5s 4s 7 9 mph 1017.9mb 48f 45f